x

Cape Edgecumbe - 25nm Ssw Of Cape Edgecumbe, Ak (46084) Wave Buoy

3:50am - Sun 26th Apr 2015 All times are AKDT. -8 hours from GMT.

  • Sig Wave height 11.8ft
  • Peak Period 8s
  • Average Period 6s
  • Wind
    38mph, 49mph gusts
  • Sea Temp 47°f
  • Air Temp 46°f
  • Sea Pressure 999.7mb
  • Cape Edgecumbe - 25nm Ssw Of Cape Edgecumbe, Ak
  • Cape Edgecumbe - 25nm Ssw Of Cape Edgecumbe, Ak

More Historic Weather Station data

Upgrade to MSW Pro to gain access to the past 30 days of data for over 8000 Wavebouys and Weather Stations around the globe.

Join Pro

Comparision Forecast

View Surf forecast
   
Sun 04/26 3:50am 12ft 8s 6s 38 49 mph 999.7mb 47f 46f
2:50am 11ft 7s 6s 43 54 mph 1000mb 47f 47f
1:50am  -   -   -  36 47 mph 1000.6mb 47f 49f
12:50am  -   -   -  27 36 mph 1001.9mb 47f 48f
Sat 04/25 11:50pm 9ft 7s 6s 27 34 mph 1002.9mb 47f 48f
10:50pm  -   -   -  27 34 mph 1003.3mb 47f 49f
9:50pm 6ft 6s 5s 25 31 mph 1003.9mb 47f 49f
8:50pm 5ft 5s 5s 22 27 mph 1004.6mb 47f 48f
7:50pm 4.5ft 5s 5s 22 25 mph 1005.4mb 47f 48f
6:50pm 4.5ft 9s 5s 20 25 mph 1006.2mb 47f 48f
5:50pm 5ft 8s 5s 18 20 mph 1007.2mb 47f 48f
4:50pm 4.5ft 5s 4s 20 25 mph 1008.2mb 47f 48f
3:50pm  -   -   -  20 22 mph 1009.1mb 48f 47f
2:50pm 4.5ft 11s 5s 20 22 mph 1009.6mb 48f 47f
1:50pm 4.5ft 9s 5s 18 22 mph 1010.1mb 47f 46f
12:50pm 4.5ft 8s 6s 13 18 mph 1010.9mb 47f 46f
11:50am 3.5ft 8s 6s 16 18 mph 1011.4mb 47f 46f
10:50am 3.5ft 10s 6s 13
mph
1011.2mb 47f 45f
9:50am 3.5ft 9s 7s 11 13 mph 1011.3mb 47f 46f
8:50am 3.5ft 9s 7s 9 11 mph 1011.2mb 47f 46f
7:50am 4ft 10s 7s 7 9 mph 1011.4mb 47f 46f
6:50am 4.5ft 9s 7s 4 7 mph 1011.5mb 47f 46f
5:50am 4.5ft 9s 6s 4 7 mph 1011.3mb 48f 45f
4:50am 4.5ft 9s 7s 4
mph
1011.3mb 48f 45f
3:50am 4ft 9s 6s 4 7 mph 1011.5mb 48f 46f
2:50am 4ft 9s 6s 4 7 mph 1011.5mb 48f 45f
1:50am 4ft 9s 7s 2 4 mph 1011.3mb 48f 46f
12:50am 4.5ft 9s 7s 2
mph
1011.2mb 48f 46f
Fri 04/24 11:50pm 4.5ft 9s 7s 2
mph
1011mb 48f 46f
10:50pm 4.5ft 9s 7s 2 4 mph 1011.1mb 48f 46f
9:50pm 4.5ft 9s 7s 4
mph
1010.8mb 48f 47f
8:50pm 3.5ft 10s 7s 4 7 mph 1010.5mb 49f 47f
7:50pm 4.5ft 9s 7s 9
mph
1010.2mb 49f 47f
6:50pm 4.5ft 9s 6s 9 11 mph 1009.9mb 48f 48f
5:50pm 4.5ft 9s 6s 9 11 mph 1009.7mb 49f 48f
4:50pm 5ft 9s 6s 9 11 mph 1009.5mb 49f 47f
3:50pm 4.5ft 9s 6s 9
mph
1009.3mb 48f 46f
2:50pm 5ft 10s 7s 7
mph
1009.1mb 48f 44f
1:50pm 4.5ft 10s 6s 7 9 mph 1009mb 48f 43f
12:50pm 5ft 10s 7s 7 9 mph 1008.8mb 48f 46f
11:50am 6ft 10s 8s 4
mph
1008.7mb 48f 47f
10:50am 5ft 10s 7s 4 7 mph 1008.5mb 48f 47f
9:50am 6ft 10s 8s 7
mph
1008.2mb 47f 47f
8:50am 6ft 10s 8s 9
mph
1007.9mb 47f 46f
7:50am 6ft 10s 7s 7 9 mph 1008mb 47f 47f
6:50am  -   -   -  7
mph
1008mb 47f 46f
5:50am 6ft 10s 7s 7 9 mph 1007.8mb 47f 46f
4:50am 6ft 11s 7s 7 9 mph 1008.1mb 47f 46f
3:50am  -   -   -  7 9 mph 1008.2mb 48f 47f
2:50am 6ft 11s 7s 7 9 mph 1008.2mb 48f 47f
1:50am 6ft 11s 7s 4
mph
1008.4mb 48f 47f
12:50am  -   -   -  4
mph
1008.5mb 48f 47f
Thu 04/23 11:50pm 6ft 11s 8s 2 4 mph 1008.6mb 48f 47f
10:50pm 7ft 11s 8s 4 7 mph 1008.7mb 48f 47f
9:50pm 7ft 11s 8s 7 9 mph 1008.5mb 47f 47f
8:50pm 7ft 11s 8s 4
mph
1008.6mb 48f 47f
7:50pm 7ft 12s 8s 2 4 mph 1008.4mb 48f 48f
6:50pm 8.5ft 11s 8s 2 4 mph 1008.3mb 48f 48f
5:50pm 8ft 11s 8s  -  2 mph 1008.1mb 48f 49f
4:50pm 9ft 13s 8s 4
mph
1007.8mb 48f 48f
3:50pm 9ft 13s 9s 7 9 mph 1007.7mb 48f 48f
2:50pm 9ft 13s 9s 2 4 mph 1007.8mb 48f 48f
1:50pm 8.5ft 13s 9s 4 7 mph 1007.7mb 47f 48f
12:50pm 9.5ft 12s 9s 4 7 mph 1007.6mb 47f 47f
11:50am 9ft 14s 8s 9
mph
1007.2mb 47f 47f
10:50am 10.5ft 13s 9s 11 13 mph 1006.8mb 47f 47f
9:50am 11ft 14s 9s 11 16 mph 1006.9mb 46f 46f
8:50am 11.5ft 15s 9s 13 16 mph 1006.8mb 46f 46f
7:50am 10ft 14s 8s 11 13 mph 1006.9mb 46f 46f
6:50am 10.5ft 11s 8s 11 16 mph 1007mb 46f 46f
5:50am 9ft 9s 7s 13 18 mph 1007mb 46f 46f
4:50am 10ft 11s 7s 11 16 mph 1007mb 46f 46f
3:50am  -   -   -  13 18 mph 1007.2mb 46f 46f
2:50am  -   -   -  16 18 mph 1007.2mb 47f 45f
1:50am  -   -   -  20 22 mph 1007.3mb 47f 45f
12:50am 10.5ft 9s 7s 20 25 mph 1007.4mb 47f 45f
Wed 04/22 11:50pm  -   -   -  22 27 mph 1007.5mb 47f 46f
10:50pm  -   -   -  22 25 mph 1007.6mb 47f 45f
9:50pm 7ft 8s 5s 20 25 mph 1008mb 47f 45f
8:50pm 7ft 7s 5s 25 31 mph 1008.2mb 47f 45f
7:50pm 6.5ft 6s 5s 25 29 mph 1008.3mb 47f 45f
6:50pm  -   -   -  22 27 mph 1008.7mb 47f 45f
5:50pm  -   -   -  20 27 mph 1009.4mb 47f 44f
4:50pm 5ft 5s 5s 20 25 mph 1010mb 47f 44f
3:50pm 5ft 5s 5s 22 27 mph 1010.8mb 47f 44f
2:50pm 5.5ft 5s 4s 25 29 mph 1011.6mb 47f 44f
1:50pm 5ft 9s 4s 25 29 mph 1012.3mb 47f 43f
12:50pm 5.5ft 10s 5s 25 29 mph 1013.2mb 47f 43f